createdAt,value
2023-01-13T00:00:26.857Z,98.44
2023-01-13T00:05:26.768Z,98.44
2023-01-13T00:10:26.745Z,98.07
2023-01-13T00:15:26.686Z,98.28
2023-01-13T00:20:26.671Z,98.18
2023-01-13T00:25:26.646Z,97.82
2023-01-13T00:30:26.669Z,97.62
2023-01-13T00:35:26.578Z,98.18
2023-01-13T00:40:26.584Z,97.31
2023-01-13T00:45:26.544Z,97.62
2023-01-13T00:50:26.480Z,97.52
2023-01-13T00:55:26.438Z,96.18
2023-01-13T01:00:26.423Z,96.48
2023-01-13T01:05:26.405Z,95.97
2023-01-13T01:10:26.398Z,96.18
2023-01-13T01:15:26.378Z,95.77
2023-01-13T01:20:26.355Z,94.95
2023-01-13T01:25:26.347Z,95.36
2023-01-13T01:30:26.330Z,95.56
2023-01-13T01:35:26.316Z,95.67
2023-01-13T01:40:26.325Z,94.33
2023-01-13T01:45:26.314Z,94.02
2023-01-13T01:50:26.252Z,93.57
2023-01-13T01:55:26.254Z,93.98
2023-01-13T02:00:26.243Z,93.57
2023-01-13T02:05:26.221Z,92.64
2023-01-13T02:10:26.944Z,92.64
2023-01-13T02:15:26.156Z,93.05
2023-01-13T02:20:26.156Z,92.85
2023-01-13T02:25:26.141Z,92.44
2023-01-13T02:30:26.105Z,91.82
2023-01-13T02:35:26.071Z,91.78
2023-01-13T02:40:26.037Z,91.06
2023-01-13T02:45:26.102Z,91.06
2023-01-13T02:50:25.973Z,91.31
2023-01-13T02:55:25.946Z,91.16
2023-01-13T03:00:25.853Z,90.44
2023-01-13T03:05:25.848Z,91.16
2023-01-13T03:10:25.826Z,90.59
2023-01-13T03:15:25.818Z,91.41
2023-01-13T03:20:25.801Z,92.07
2023-01-13T03:25:25.798Z,91.20
2023-01-13T03:30:25.809Z,91.10
2023-01-13T03:35:25.748Z,91.51
2023-01-13T03:40:25.728Z,91.93
2023-01-13T03:45:25.725Z,91.31
2023-01-13T03:50:25.659Z,91.10
2023-01-13T03:55:25.649Z,91.20
2023-01-13T04:00:25.621Z,90.80
2023-01-13T04:05:25.605Z,91.51
2023-01-13T04:10:25.594Z,91.82
2023-01-13T04:15:25.638Z,91.72
2023-01-13T04:20:25.554Z,90.55
2023-01-13T04:25:25.535Z,89.52
2023-01-13T04:30:25.489Z,89.83
2023-01-13T04:35:25.483Z,90.44
2023-01-13T04:40:25.450Z,90.24
2023-01-13T04:45:25.444Z,89.31
2023-01-13T04:50:28.092Z,88.56
2023-01-13T04:55:25.409Z,89.37
2023-01-13T05:00:25.384Z,89.21
2023-01-13T05:05:25.352Z,89.62
2023-01-13T05:10:25.315Z,89.42
2023-01-13T05:15:25.317Z,89.27
2023-01-13T05:20:25.292Z,90.14
2023-01-13T05:25:25.387Z,89.89
2023-01-13T05:30:25.219Z,89.78
2023-01-13T05:35:25.212Z,89.58
2023-01-13T05:40:25.132Z,89.78
2023-01-13T05:45:25.113Z,89.07
2023-01-13T05:50:25.087Z,89.89
2023-01-13T05:55:25.052Z,90.09
2023-01-13T06:00:25.029Z,89.69
2023-01-13T06:05:25.660Z,89.99
2023-01-13T06:10:24.941Z,90.14
2023-01-13T06:15:24.922Z,88.49
2023-01-13T06:20:24.947Z,91.20
2023-01-13T06:25:24.896Z,92.93
2023-01-13T06:30:24.881Z,93.04
2023-01-13T06:35:24.859Z,93.55
2023-01-13T06:40:24.824Z,93.04
2023-01-13T06:45:24.805Z,94.01
2023-01-13T06:50:24.838Z,94.01
2023-01-13T06:55:24.769Z,93.49
2023-01-13T07:00:24.738Z,93.86
2023-01-13T07:05:24.717Z,94.89
2023-01-13T07:10:24.693Z,95.09
2023-01-13T07:15:24.672Z,95.40
2023-01-13T07:20:24.639Z,95.61
2023-01-13T07:25:24.635Z,93.76
2023-01-13T07:30:24.690Z,93.76
2023-01-13T07:35:24.550Z,93.86
2023-01-13T07:40:24.488Z,92.93
2023-01-13T07:45:27.215Z,93.04
2023-01-13T07:50:27.194Z,93.86
2023-01-13T07:55:26.205Z,93.44
2023-01-13T08:00:24.395Z,92.83
2023-01-13T08:05:24.286Z,92.93
2023-01-13T08:10:24.234Z,93.24
2023-01-13T08:15:24.257Z,93.35
2023-01-13T08:20:24.200Z,93.59
2023-01-13T08:25:24.175Z,93.08
2023-01-13T08:30:24.198Z,90.81
2023-01-13T08:35:24.142Z,89.48
2023-01-13T08:40:24.123Z,89.69
2023-01-13T08:45:24.138Z,89.79
2023-01-13T08:50:24.100Z,91.13
2023-01-13T08:55:24.073Z,90.72
2023-01-13T09:00:24.111Z,90.24
2023-01-13T09:05:24.040Z,89.69
2023-01-13T09:10:23.989Z,88.76
2023-01-13T09:15:23.961Z,87.87
2023-01-13T09:20:26.622Z,88.74
2023-01-13T09:25:26.743Z,88.95
2023-01-13T09:30:25.689Z,89.46
2023-01-13T09:35:23.866Z,89.77
2023-01-13T09:40:23.805Z,89.97
2023-01-13T09:45:23.808Z,89.71
2023-01-13T09:50:25.725Z,89.25
2023-01-13T09:55:23.739Z,88.70
2023-01-13T10:00:23.714Z,87.51
2023-01-13T10:05:23.683Z,86.95
2023-01-13T10:10:23.668Z,86.33
2023-01-13T10:15:23.648Z,85.75
2023-01-13T10:20:23.601Z,84.72
2023-01-13T10:25:23.604Z,85.34
2023-01-13T10:30:23.537Z,83.49
2023-01-13T10:35:23.602Z,84.83
2023-01-13T10:40:23.466Z,82.83
2023-01-13T10:45:23.516Z,81.29
2023-01-13T10:50:25.039Z,79.81
2023-01-13T10:55:23.488Z,80.22
2023-01-13T11:00:23.358Z,79.71
2023-01-13T11:05:23.313Z,79.19
2023-01-13T11:10:23.280Z,80.39
2023-01-13T11:15:23.264Z,79.47
2023-01-13T11:20:23.205Z,78.85
2023-01-13T11:25:23.156Z,78.81
2023-01-13T11:30:23.119Z,78.81
2023-01-13T11:35:23.086Z,77.89
2023-01-13T11:40:23.045Z,76.45
2023-01-13T11:45:23.012Z,74.98
2023-01-13T11:50:22.950Z,74.87
2023-01-13T11:55:23.087Z,74.26
2023-01-13T12:00:22.943Z,73.81
2023-01-13T12:05:22.928Z,74.02
2023-01-13T12:10:22.883Z,72.68
2023-01-13T12:15:22.876Z,71.42
2023-01-13T12:20:22.820Z,70.36
2023-01-13T12:25:22.788Z,66.60
2023-01-13T12:30:22.784Z,66.71
2023-01-13T12:35:22.744Z,66.16
2023-01-13T12:40:22.703Z,64.01
2023-01-13T12:45:22.732Z,64.04
2023-01-13T12:50:22.657Z,64.62
2023-01-13T12:55:22.626Z,63.70
2023-01-13T13:00:23.824Z,64.04
2023-01-13T13:05:22.532Z,64.04
2023-01-13T13:10:22.527Z,66.84
2023-01-13T13:15:22.545Z,66.22
2023-01-13T13:20:22.468Z,66.43
2023-01-13T13:25:22.408Z,65.81
2023-01-13T13:30:22.377Z,63.97
2023-01-13T13:35:22.329Z,63.84
2023-01-13T13:40:22.288Z,63.84
2023-01-13T13:45:22.247Z,62.40
2023-01-13T13:50:22.196Z,63.59
2023-01-13T13:55:22.183Z,64.00
2023-01-13T14:00:22.199Z,65.03
2023-01-13T14:05:22.108Z,65.67
2023-01-13T14:10:22.063Z,63.72
2023-01-13T14:15:23.740Z,63.51
2023-01-13T14:20:21.996Z,62.90
2023-01-13T14:25:21.916Z,61.57
2023-01-13T14:30:21.872Z,62.31
2023-01-13T14:35:21.815Z,67.17
2023-01-13T14:40:21.810Z,67.20
2023-01-13T14:45:21.767Z,67.13
2023-01-13T14:50:21.729Z,66.61
2023-01-13T14:55:21.683Z,67.98
2023-01-13T15:00:21.645Z,68.60
2023-01-13T15:05:21.648Z,69.12
2023-01-13T15:10:21.568Z,69.12
2023-01-13T15:15:21.558Z,69.76
2023-01-13T15:20:21.518Z,70.59
2023-01-13T15:25:21.476Z,71.20
2023-01-13T15:30:21.429Z,71.31
2023-01-13T15:35:21.384Z,72.13
2023-01-13T15:40:21.385Z,72.03
2023-01-13T15:45:21.341Z,73.06
2023-01-13T15:50:22.244Z,71.31
2023-01-13T15:55:21.320Z,71.41
2023-01-13T16:00:22.082Z,72.34
2023-01-13T16:05:21.236Z,75.15
2023-01-13T16:10:21.210Z,74.53
2023-01-13T16:15:22.080Z,76.18
2023-01-13T16:20:21.217Z,75.56
2023-01-13T16:25:21.136Z,74.95
2023-01-13T16:30:21.101Z,73.61
2023-01-13T16:35:21.056Z,74.53
2023-01-13T16:40:21.022Z,74.43
2023-01-13T16:45:21.008Z,74.12
2023-01-13T16:50:23.240Z,74.63
2023-01-13T16:55:20.947Z,73.91
2023-01-13T17:00:20.911Z,72.03
2023-01-13T17:05:20.889Z,73.06
2023-01-13T17:10:20.843Z,73.16
2023-01-13T17:15:20.827Z,73.68
2023-01-13T17:20:20.789Z,73.98
2023-01-13T17:25:20.767Z,74.33
2023-01-13T17:30:20.742Z,75.25
2023-01-13T17:35:20.701Z,75.25
2023-01-13T17:40:20.691Z,74.95
2023-01-13T17:45:20.668Z,75.56
2023-01-13T17:50:20.615Z,74.84
2023-01-13T17:55:20.565Z,75.25
2023-01-13T18:00:20.514Z,76.32
2023-01-13T18:05:20.491Z,76.76
2023-01-13T18:10:20.465Z,76.97
2023-01-13T18:15:20.413Z,77.38
2023-01-13T18:20:20.396Z,77.08
2023-01-13T18:25:21.933Z,76.76
2023-01-13T18:30:20.320Z,75.29
2023-01-13T18:35:20.287Z,75.70
2023-01-13T18:40:20.275Z,75.18
2023-01-13T18:45:20.227Z,75.18
2023-01-13T18:50:20.168Z,74.98
2023-01-13T18:55:20.142Z,75.29
2023-01-13T19:00:20.093Z,75.60
2023-01-13T19:05:21.790Z,75.70
2023-01-13T19:10:20.044Z,76.01
2023-01-13T19:15:19.979Z,76.42
2023-01-13T19:20:20.047Z,75.18
2023-01-13T19:25:19.932Z,75.39
2023-01-13T19:30:19.938Z,75.94
2023-01-13T19:35:19.893Z,76.04
2023-01-13T19:40:19.885Z,76.76
2023-01-13T19:45:19.847Z,77.01
2023-01-13T19:50:19.834Z,76.80
2023-01-13T19:55:19.840Z,77.01
2023-01-13T20:00:19.759Z,77.45
2023-01-13T20:05:19.722Z,78.08
2023-01-13T20:10:19.691Z,78.59
2023-01-13T20:15:19.666Z,77.97
2023-01-13T20:20:19.653Z,78.90
2023-01-13T20:25:19.614Z,78.38
2023-01-13T20:30:19.580Z,77.15
2023-01-13T20:35:19.576Z,77.04
2023-01-13T20:40:19.575Z,77.56
2023-01-13T20:45:19.531Z,77.45
2023-01-13T20:50:19.478Z,78.59
2023-01-13T20:55:19.437Z,78.80
2023-01-13T21:00:19.440Z,79.97
2023-01-13T21:05:19.377Z,80.07
2023-01-13T21:10:19.371Z,80.48
2023-01-13T21:15:19.353Z,80.79
2023-01-13T21:20:19.352Z,80.38
2023-01-13T21:25:19.294Z,80.18
2023-01-13T21:30:19.291Z,79.83
2023-01-13T21:35:19.245Z,80.90
2023-01-13T21:40:19.244Z,81.56
2023-01-13T21:45:19.188Z,81.76
2023-01-13T21:50:19.182Z,82.89
2023-01-13T21:55:19.131Z,82.73
2023-01-13T22:00:19.140Z,83.10
2023-01-13T22:05:19.116Z,82.59
2023-01-13T22:10:19.107Z,83.10
2023-01-13T22:15:19.062Z,82.48
2023-01-13T22:20:19.061Z,82.75
2023-01-13T22:25:19.014Z,81.93
2023-01-13T22:30:19.018Z,82.24
2023-01-13T22:35:18.961Z,81.72
2023-01-13T22:40:18.950Z,81.21
2023-01-13T22:45:18.903Z,81.48
2023-01-13T22:50:18.887Z,81.48
2023-01-13T22:55:18.837Z,81.07
2023-01-13T23:00:19.220Z,81.17
2023-01-13T23:05:18.788Z,81.07
2023-01-13T23:10:18.739Z,80.14
2023-01-13T23:15:18.686Z,80.14
2023-01-13T23:20:18.664Z,79.83
2023-01-13T23:25:18.645Z,80.76
2023-01-13T23:30:18.663Z,81.58
2023-01-13T23:35:18.596Z,82.40
2023-01-13T23:40:18.620Z,81.41
2023-01-13T23:45:18.568Z,81.51
2023-01-13T23:50:18.585Z,81.17
2023-01-13T23:55:18.530Z,80.44
